createdAt,value
2019-03-27T00:03:21.286Z,11.83
2019-03-27T00:08:18.066Z,11.93
2019-03-27T00:13:14.018Z,13.20
2019-03-27T00:18:10.133Z,12.20
2019-03-27T00:23:06.049Z,9.40
2019-03-27T00:28:01.967Z,10.10
2019-03-27T00:32:57.894Z,10.20
2019-03-27T00:37:53.811Z,9.70
2019-03-27T00:42:49.727Z,10.37
2019-03-27T00:47:45.732Z,11.67
2019-03-27T00:52:41.646Z,13.40
2019-03-27T00:57:37.569Z,11.63
2019-03-27T01:02:33.493Z,9.70
2019-03-27T01:07:29.492Z,9.20
2019-03-27T01:12:25.417Z,13.13
2019-03-27T01:17:21.388Z,13.20
2019-03-27T01:22:17.317Z,10.63
2019-03-27T01:27:13.235Z,10.37
2019-03-27T01:32:09.152Z,11.10
2019-03-27T01:37:05.230Z,11.80
2019-03-27T01:42:01.149Z,12.67
2019-03-27T01:46:57.062Z,11.07
2019-03-27T01:51:53.081Z,11.77
2019-03-27T01:56:49.073Z,11.77
2019-03-27T02:01:44.996Z,9.80
2019-03-27T02:06:43.543Z,11.87
2019-03-27T02:11:39.559Z,11.30
2019-03-27T02:16:35.473Z,12.27
2019-03-27T02:21:31.384Z,10.40
2019-03-27T02:26:27.305Z,11.97
2019-03-27T02:31:23.398Z,10.87
2019-03-27T02:36:19.316Z,13.50
2019-03-27T02:41:15.234Z,12.30
2019-03-27T02:46:23.689Z,11.80
2019-03-27T02:51:08.988Z,10.77
2019-03-27T02:56:05.074Z,11.83
2019-03-27T03:01:00.992Z,12.37
2019-03-27T03:05:56.915Z,12.03
2019-03-27T03:10:52.870Z,12.33
2019-03-27T03:15:48.787Z,12.23
2019-03-27T03:20:44.730Z,12.00
2019-03-27T03:25:40.683Z,11.53
2019-03-27T03:30:36.632Z,12.13
2019-03-27T03:35:32.589Z,12.40
2019-03-27T03:40:28.516Z,13.20
2019-03-27T03:45:24.446Z,12.53
2019-03-27T03:50:40.906Z,10.80
2019-03-27T03:55:37.506Z,12.20
2019-03-27T04:00:33.554Z,12.70
2019-03-27T04:05:29.477Z,11.70
2019-03-27T04:10:25.523Z,12.77
2019-03-27T04:15:21.542Z,15.03
2019-03-27T04:20:17.475Z,12.30
2019-03-27T04:25:14.947Z,13.63
2019-03-27T04:30:11.882Z,13.93
2019-03-27T04:35:10.609Z,11.57
2019-03-27T04:40:08.782Z,12.67
2019-03-27T04:45:05.663Z,13.80
2019-03-27T04:50:03.753Z,14.00
2019-03-27T04:55:00.503Z,12.73
2019-03-27T04:59:56.394Z,13.70
2019-03-27T05:04:52.731Z,14.57
2019-03-27T05:09:48.647Z,15.57
2019-03-27T05:14:44.598Z,16.03
2019-03-27T05:19:40.621Z,18.60
2019-03-27T05:24:37.330Z,18.50
2019-03-27T05:29:33.218Z,15.53
2019-03-27T05:34:29.177Z,18.20
2019-03-27T05:39:25.118Z,19.20
2019-03-27T05:44:21.048Z,19.73
2019-03-27T05:49:16.967Z,18.63
2019-03-27T05:54:16.456Z,19.23
2019-03-27T05:59:12.479Z,17.63
2019-03-27T06:04:08.407Z,17.77
2019-03-27T06:09:04.933Z,21.33
2019-03-27T06:14:00.863Z,19.13
2019-03-27T06:18:56.777Z,18.90
2019-03-27T06:23:53.361Z,16.40
2019-03-27T06:28:49.284Z,15.27
2019-03-27T06:33:45.223Z,14.70
2019-03-27T06:38:41.142Z,19.60
2019-03-27T06:43:37.158Z,16.67
2019-03-27T06:48:33.070Z,17.60
2019-03-27T06:53:28.989Z,17.83
2019-03-27T06:58:25.016Z,16.77
2019-03-27T07:03:20.931Z,13.20
2019-03-27T07:08:16.865Z,16.53
2019-03-27T07:13:12.796Z,17.33
2019-03-27T07:18:08.802Z,16.63
2019-03-27T07:23:04.724Z,16.20
2019-03-27T07:28:00.655Z,16.47
2019-03-27T07:32:56.577Z,12.30
2019-03-27T07:37:52.507Z,9.83
2019-03-27T07:42:48.468Z,13.70
2019-03-27T07:47:44.443Z,13.70
2019-03-27T07:52:40.366Z,13.50
2019-03-27T07:57:36.365Z,11.60
2019-03-27T08:02:32.345Z,12.77
2019-03-27T08:07:28.292Z,11.53
2019-03-27T08:12:24.208Z,6.43
2019-03-27T08:17:20.241Z,10.70
2019-03-27T08:22:16.179Z,10.20
2019-03-27T08:27:14.566Z,10.37
2019-03-27T08:32:10.068Z,10.40
2019-03-27T08:37:05.988Z,12.00
2019-03-27T08:42:01.909Z,4.77
2019-03-27T08:46:57.849Z,11.10
2019-03-27T08:51:53.770Z,10.93
2019-03-27T08:56:49.711Z,8.00
2019-03-27T09:01:45.739Z,8.60
2019-03-27T09:06:41.648Z,7.67
2019-03-27T09:11:37.572Z,8.10
2019-03-27T09:16:33.487Z,6.60
2019-03-27T09:21:29.414Z,9.27
2019-03-27T09:26:25.519Z,7.90
2019-03-27T09:31:21.440Z,7.90
2019-03-27T09:36:17.425Z,8.00
2019-03-27T09:41:13.344Z,9.63
2019-03-27T09:46:12.093Z,7.30
2019-03-27T09:51:10.950Z,6.30
2019-03-27T09:56:18.436Z,6.43
2019-03-27T10:01:12.175Z,6.77
2019-03-27T10:11:26.048Z,3.60
2019-03-27T10:16:22.073Z,3.50
2019-03-27T10:21:18.098Z,4.30
2019-03-27T10:26:14.110Z,5.53
2019-03-27T10:31:10.062Z,2.20
2019-03-27T10:36:06.012Z,4.90
2019-03-27T10:41:01.924Z,3.40
2019-03-27T10:46:02.990Z,4.30
2019-03-27T10:50:59.414Z,3.47
2019-03-27T10:55:55.380Z,4.80
2019-03-27T11:00:51.310Z,3.57
2019-03-27T11:05:47.243Z,2.90
2019-03-27T11:10:43.151Z,2.47
2019-03-27T11:15:39.075Z,3.90
2019-03-27T11:20:35.617Z,4.47
2019-03-27T11:25:33.274Z,4.53
2019-03-27T11:30:53.849Z,3.97
2019-03-27T11:35:51.708Z,3.87
2019-03-27T11:40:48.528Z,5.33
2019-03-27T11:45:44.549Z,4.10
2019-03-27T11:50:45.083Z,5.70
2019-03-27T11:55:38.342Z,3.53
2019-03-27T12:00:34.254Z,3.00
2019-03-27T12:05:30.170Z,4.67
2019-03-27T12:10:26.086Z,2.83
2019-03-27T12:15:36.755Z,1.70
2019-03-27T12:20:32.734Z,3.60
2019-03-27T12:25:28.644Z,3.20
2019-03-27T12:30:24.556Z,3.63
2019-03-27T12:35:20.642Z,4.13
2019-03-27T12:40:16.554Z,4.90
2019-03-27T12:45:12.570Z,4.23
2019-03-27T12:50:08.893Z,3.53
2019-03-27T12:55:05.018Z,3.87
2019-03-27T13:00:01.071Z,3.60
2019-03-27T13:04:57.075Z,3.70
2019-03-27T13:09:52.989Z,4.40
2019-03-27T13:14:50.485Z,4.30
2019-03-27T13:19:46.615Z,4.80
2019-03-27T13:24:43.227Z,3.53
2019-03-27T13:29:39.363Z,3.40
2019-03-27T13:34:35.349Z,3.97
2019-03-27T13:39:32.306Z,4.10
2019-03-27T13:44:36.821Z,4.60
2019-03-27T13:49:26.179Z,2.60
2019-03-27T13:54:25.193Z,3.17
2019-03-27T13:59:21.829Z,4.50
2019-03-27T14:04:17.760Z,1.83
2019-03-27T14:09:15.305Z,3.10
2019-03-27T14:14:13.021Z,2.70
2019-03-27T14:19:09.048Z,4.17
2019-03-27T14:24:08.991Z,3.43
2019-03-27T14:29:05.110Z,3.97
2019-03-27T14:34:01.030Z,3.80
2019-03-27T14:38:56.939Z,3.00
2019-03-27T14:43:52.958Z,3.13
2019-03-27T14:48:48.909Z,3.50
2019-03-27T14:53:52.028Z,3.30
2019-03-27T14:58:49.125Z,3.70
2019-03-27T15:03:45.156Z,3.60
2019-03-27T15:08:42.365Z,3.03
2019-03-27T15:13:38.986Z,3.70
2019-03-27T15:18:35.176Z,3.67
2019-03-27T15:23:35.620Z,3.50
2019-03-27T15:28:32.075Z,3.00
2019-03-27T15:33:30.682Z,3.63
2019-03-27T15:38:26.709Z,3.53
2019-03-27T15:43:22.617Z,3.03
2019-03-27T15:48:18.542Z,3.70
2019-03-27T15:53:14.445Z,3.23
2019-03-27T15:58:10.361Z,4.47
2019-03-27T16:03:09.771Z,2.60
2019-03-27T16:08:14.082Z,3.60
2019-03-27T16:13:11.024Z,4.60
2019-03-27T16:18:09.002Z,3.87
2019-03-27T16:23:05.588Z,4.43
2019-03-27T16:28:02.497Z,4.33
2019-03-27T16:33:02.364Z,3.60
2019-03-27T16:37:59.149Z,3.23
2019-03-27T16:42:56.542Z,4.10
2019-03-27T16:47:52.558Z,3.63
2019-03-27T16:52:48.502Z,4.33
2019-03-27T16:57:44.411Z,4.87
2019-03-27T17:02:40.330Z,4.57
2019-03-27T17:07:36.367Z,3.80
2019-03-27T17:12:32.518Z,3.97
2019-03-27T17:17:28.425Z,3.50
2019-03-27T17:22:24.452Z,3.90
2019-03-27T17:27:20.664Z,4.20
2019-03-27T17:32:16.581Z,4.70
2019-03-27T17:37:12.572Z,3.87
2019-03-27T17:42:08.503Z,4.20
2019-03-27T17:47:04.428Z,4.33
2019-03-27T17:52:01.180Z,3.80
2019-03-27T17:56:57.840Z,3.70
2019-03-27T18:01:53.751Z,3.90
2019-03-27T18:06:49.663Z,3.83
2019-03-27T18:11:46.435Z,3.87
2019-03-27T18:16:42.532Z,4.27
2019-03-27T18:21:38.444Z,4.10
2019-03-27T18:26:36.409Z,3.90
2019-03-27T18:31:33.310Z,3.70
2019-03-27T18:36:30.234Z,3.87
2019-03-27T18:41:27.341Z,4.50
2019-03-27T18:46:23.352Z,4.27
2019-03-27T18:51:20.360Z,4.10
2019-03-27T18:56:16.382Z,4.50
2019-03-27T19:01:13.414Z,4.67
2019-03-27T19:06:10.260Z,5.40
2019-03-27T19:11:07.089Z,5.07
2019-03-27T19:16:03.273Z,5.30
2019-03-27T19:20:59.208Z,4.43
2019-03-27T19:25:55.132Z,4.90
2019-03-27T19:30:51.087Z,5.50
2019-03-27T19:35:47.170Z,6.40
2019-03-27T19:40:43.901Z,6.83
2019-03-27T19:45:40.054Z,6.70
2019-03-27T19:50:36.092Z,6.83
2019-03-27T19:55:32.737Z,6.67
2019-03-27T20:00:28.654Z,7.10
2019-03-27T20:05:24.609Z,6.40
2019-03-27T20:10:20.627Z,6.33
2019-03-27T20:15:16.656Z,7.47
2019-03-27T20:20:12.997Z,6.40
2019-03-27T20:25:14.579Z,6.47
2019-03-27T20:30:16.278Z,6.30
2019-03-27T20:35:13.571Z,8.00
2019-03-27T20:40:10.869Z,7.47
2019-03-27T20:45:08.404Z,6.97
2019-03-27T20:50:06.055Z,7.00
2019-03-27T20:55:04.745Z,7.80
2019-03-27T21:00:00.956Z,7.40
2019-03-27T21:04:59.407Z,7.73
2019-03-27T21:09:55.480Z,9.77
2019-03-27T21:14:51.456Z,9.40
2019-03-27T21:19:47.433Z,9.00
2019-03-27T21:24:44.212Z,8.40
2019-03-27T21:29:40.098Z,8.00
2019-03-27T21:34:36.014Z,8.17
2019-03-27T21:39:32.013Z,7.30
2019-03-27T21:44:27.931Z,7.93
2019-03-27T21:49:23.911Z,8.87
2019-03-27T21:54:22.980Z,8.67
2019-03-27T21:59:18.866Z,9.90
2019-03-27T22:04:14.802Z,9.33
2019-03-27T22:09:10.807Z,7.63
2019-03-27T22:14:06.831Z,8.10
2019-03-27T22:19:02.888Z,8.03
2019-03-27T22:24:10.100Z,8.83
2019-03-27T22:29:06.254Z,8.50
2019-03-27T22:34:02.235Z,8.03
2019-03-27T22:38:58.123Z,8.10
2019-03-27T22:43:54.041Z,7.20
2019-03-27T22:48:50.019Z,8.17
2019-03-27T22:53:47.659Z,8.33
2019-03-27T22:58:43.675Z,9.03
2019-03-27T23:03:42.020Z,7.80
2019-03-27T23:08:38.107Z,8.00
2019-03-27T23:13:34.072Z,8.30
2019-03-27T23:18:29.992Z,8.40
2019-03-27T23:23:25.957Z,8.23
2019-03-27T23:28:21.993Z,8.70
2019-03-27T23:33:20.222Z,8.23
2019-03-27T23:38:15.780Z,7.50
2019-03-27T23:43:11.715Z,8.67
2019-03-27T23:48:07.682Z,7.00
2019-03-27T23:53:03.613Z,7.97
2019-03-27T23:57:59.546Z,7.23
